sensor_id;sensor_type;location;lat;lon;timestamp;P1;durP1;ratioP1;P2;durP2;ratioP2
7029;SDS011;3556;53.500;10.176;2023-05-07T00:01:07;13.00;;;11.70;;
7029;SDS011;3556;53.500;10.176;2023-05-07T00:03:33;17.90;;;13.07;;
7029;SDS011;3556;53.500;10.176;2023-05-07T00:05:58;15.43;;;12.63;;
7029;SDS011;3556;53.500;10.176;2023-05-07T00:08:24;14.10;;;12.60;;
7029;SDS011;3556;53.500;10.176;2023-05-07T00:10:49;12.27;;;11.03;;
7029;SDS011;3556;53.500;10.176;2023-05-07T00:13:15;14.63;;;12.30;;
7029;SDS011;3556;53.500;10.176;2023-05-07T00:15:40;15.57;;;12.90;;
7029;SDS011;3556;53.500;10.176;2023-05-07T00:18:06;17.63;;;12.80;;
7029;SDS011;3556;53.500;10.176;2023-05-07T00:20:32;14.00;;;12.50;;
7029;SDS011;3556;53.500;10.176;2023-05-07T00:22:57;17.43;;;13.47;;
7029;SDS011;3556;53.500;10.176;2023-05-07T00:25:23;17.23;;;12.60;;
7029;SDS011;3556;53.500;10.176;2023-05-07T00:27:48;14.03;;;12.53;;
7029;SDS011;3556;53.500;10.176;2023-05-07T00:30:14;13.03;;;11.70;;
7029;SDS011;3556;53.500;10.176;2023-05-07T00:32:40;14.53;;;12.40;;
7029;SDS011;3556;53.500;10.176;2023-05-07T00:35:06;13.47;;;12.10;;
7029;SDS011;3556;53.500;10.176;2023-05-07T00:37:32;14.20;;;11.90;;
7029;SDS011;3556;53.500;10.176;2023-05-07T00:39:57;16.00;;;12.43;;
7029;SDS011;3556;53.500;10.176;2023-05-07T00:42:23;14.03;;;12.63;;
7029;SDS011;3556;53.500;10.176;2023-05-07T00:44:49;16.70;;;13.10;;
7029;SDS011;3556;53.500;10.176;2023-05-07T00:47:15;16.70;;;13.27;;
7029;SDS011;3556;53.500;10.176;2023-05-07T00:49:42;14.70;;;13.10;;
7029;SDS011;3556;53.500;10.176;2023-05-07T00:52:13;14.80;;;12.63;;
7029;SDS011;3556;53.500;10.176;2023-05-07T00:54:40;12.20;;;10.93;;
7029;SDS011;3556;53.500;10.176;2023-05-07T00:57:06;14.90;;;12.17;;
7029;SDS011;3556;53.500;10.176;2023-05-07T00:59:34;13.23;;;11.50;;
7029;SDS011;3556;53.500;10.176;2023-05-07T01:02:00;12.23;;;10.50;;
7029;SDS011;3556;53.500;10.176;2023-05-07T01:04:26;11.53;;;10.33;;
7029;SDS011;3556;53.500;10.176;2023-05-07T01:06:52;13.17;;;11.10;;
7029;SDS011;3556;53.500;10.176;2023-05-07T01:09:25;10.80;;;9.90;;
7029;SDS011;3556;53.500;10.176;2023-05-07T01:11:51;12.70;;;11.40;;
7029;SDS011;3556;53.500;10.176;2023-05-07T01:14:18;11.60;;;10.60;;
7029;SDS011;3556;53.500;10.176;2023-05-07T01:16:44;13.37;;;11.07;;
7029;SDS011;3556;53.500;10.176;2023-05-07T01:19:10;11.50;;;10.50;;
7029;SDS011;3556;53.500;10.176;2023-05-07T01:21:38;12.57;;;11.37;;
7029;SDS011;3556;53.500;10.176;2023-05-07T01:24:09;12.83;;;11.50;;
7029;SDS011;3556;53.500;10.176;2023-05-07T01:26:36;11.60;;;10.40;;
7029;SDS011;3556;53.500;10.176;2023-05-07T01:29:02;12.50;;;11.20;;
7029;SDS011;3556;53.500;10.176;2023-05-07T01:31:28;12.63;;;10.70;;
7029;SDS011;3556;53.500;10.176;2023-05-07T01:33:54;12.13;;;10.83;;
7029;SDS011;3556;53.500;10.176;2023-05-07T01:36:21;12.00;;;10.73;;
7029;SDS011;3556;53.500;10.176;2023-05-07T01:38:50;12.47;;;10.50;;
7029;SDS011;3556;53.500;10.176;2023-05-07T01:41:17;12.47;;;11.00;;
7029;SDS011;3556;53.500;10.176;2023-05-07T01:43:44;12.27;;;11.10;;
7029;SDS011;3556;53.500;10.176;2023-05-07T01:46:11;11.30;;;10.20;;
7029;SDS011;3556;53.500;10.176;2023-05-07T01:48:38;13.03;;;11.73;;
7029;SDS011;3556;53.500;10.176;2023-05-07T01:51:04;12.33;;;11.20;;
7029;SDS011;3556;53.500;10.176;2023-05-07T01:53:40;11.47;;;10.37;;
7029;SDS011;3556;53.500;10.176;2023-05-07T01:56:06;12.87;;;11.27;;
7029;SDS011;3556;53.500;10.176;2023-05-07T01:58:31;11.83;;;10.57;;
7029;SDS011;3556;53.500;10.176;2023-05-07T02:00:57;11.87;;;10.67;;
7029;SDS011;3556;53.500;10.176;2023-05-07T02:03:24;12.20;;;10.60;;
7029;SDS011;3556;53.500;10.176;2023-05-07T02:05:49;14.63;;;10.87;;
7029;SDS011;3556;53.500;10.176;2023-05-07T02:08:15;12.30;;;10.90;;
7029;SDS011;3556;53.500;10.176;2023-05-07T02:10:40;11.93;;;10.43;;
7029;SDS011;3556;53.500;10.176;2023-05-07T02:13:06;13.40;;;10.07;;
7029;SDS011;3556;53.500;10.176;2023-05-07T02:15:31;13.23;;;9.93;;
7029;SDS011;3556;53.500;10.176;2023-05-07T02:17:58;11.50;;;10.30;;
7029;SDS011;3556;53.500;10.176;2023-05-07T02:20:25;13.50;;;10.13;;
7029;SDS011;3556;53.500;10.176;2023-05-07T02:22:51;10.80;;;9.70;;
7029;SDS011;3556;53.500;10.176;2023-05-07T02:25:16;11.27;;;10.13;;
7029;SDS011;3556;53.500;10.176;2023-05-07T02:27:42;11.27;;;8.93;;
7029;SDS011;3556;53.500;10.176;2023-05-07T02:30:07;12.63;;;10.33;;
7029;SDS011;3556;53.500;10.176;2023-05-07T02:32:33;11.33;;;9.77;;
7029;SDS011;3556;53.500;10.176;2023-05-07T02:34:59;14.77;;;10.60;;
7029;SDS011;3556;53.500;10.176;2023-05-07T02:37:24;11.50;;;10.30;;
7029;SDS011;3556;53.500;10.176;2023-05-07T02:39:50;11.97;;;10.13;;
7029;SDS011;3556;53.500;10.176;2023-05-07T02:42:15;12.40;;;11.10;;
7029;SDS011;3556;53.500;10.176;2023-05-07T02:44:41;11.03;;;10.03;;
7029;SDS011;3556;53.500;10.176;2023-05-07T02:47:06;12.97;;;11.07;;
7029;SDS011;3556;53.500;10.176;2023-05-07T02:49:33;12.47;;;11.20;;
7029;SDS011;3556;53.500;10.176;2023-05-07T02:51:59;16.80;;;10.87;;
7029;SDS011;3556;53.500;10.176;2023-05-07T02:54:24;13.57;;;11.77;;
7029;SDS011;3556;53.500;10.176;2023-05-07T02:56:50;15.80;;;12.37;;
7029;SDS011;3556;53.500;10.176;2023-05-07T02:59:16;14.37;;;11.40;;
7029;SDS011;3556;53.500;10.176;2023-05-07T03:01:41;14.73;;;11.93;;
7029;SDS011;3556;53.500;10.176;2023-05-07T03:04:09;15.73;;;11.77;;
7029;SDS011;3556;53.500;10.176;2023-05-07T03:06:35;13.37;;;11.27;;
7029;SDS011;3556;53.500;10.176;2023-05-07T03:09:01;16.87;;;12.83;;
7029;SDS011;3556;53.500;10.176;2023-05-07T03:11:27;15.30;;;12.00;;
7029;SDS011;3556;53.500;10.176;2023-05-07T03:13:53;16.87;;;12.93;;
7029;SDS011;3556;53.500;10.176;2023-05-07T03:16:19;16.43;;;12.57;;
7029;SDS011;3556;53.500;10.176;2023-05-07T03:18:45;15.00;;;12.30;;
7029;SDS011;3556;53.500;10.176;2023-05-07T03:21:10;13.10;;;11.67;;
7029;SDS011;3556;53.500;10.176;2023-05-07T03:23:36;14.93;;;12.67;;
7029;SDS011;3556;53.500;10.176;2023-05-07T03:26:02;15.03;;;12.60;;
7029;SDS011;3556;53.500;10.176;2023-05-07T03:28:27;13.27;;;11.50;;
7029;SDS011;3556;53.500;10.176;2023-05-07T03:30:53;12.70;;;11.40;;
7029;SDS011;3556;53.500;10.176;2023-05-07T03:33:18;13.80;;;11.40;;
7029;SDS011;3556;53.500;10.176;2023-05-07T03:35:44;17.03;;;10.83;;
7029;SDS011;3556;53.500;10.176;2023-05-07T03:38:10;12.33;;;11.10;;
7029;SDS011;3556;53.500;10.176;2023-05-07T03:40:35;12.20;;;11.00;;
7029;SDS011;3556;53.500;10.176;2023-05-07T03:43:01;11.67;;;10.57;;
7029;SDS011;3556;53.500;10.176;2023-05-07T03:45:27;11.47;;;10.30;;
7029;SDS011;3556;53.500;10.176;2023-05-07T03:47:52;11.63;;;10.53;;
7029;SDS011;3556;53.500;10.176;2023-05-07T03:50:18;13.60;;;11.33;;
7029;SDS011;3556;53.500;10.176;2023-05-07T03:52:44;11.77;;;10.63;;
7029;SDS011;3556;53.500;10.176;2023-05-07T03:55:10;12.27;;;10.97;;
7029;SDS011;3556;53.500;10.176;2023-05-07T03:57:35;10.73;;;9.73;;
7029;SDS011;3556;53.500;10.176;2023-05-07T04:00:01;11.03;;;10.00;;
7029;SDS011;3556;53.500;10.176;2023-05-07T04:02:28;23.57;;;10.83;;
7029;SDS011;3556;53.500;10.176;2023-05-07T04:04:54;12.63;;;11.23;;
7029;SDS011;3556;53.500;10.176;2023-05-07T04:07:20;12.60;;;11.30;;
7029;SDS011;3556;53.500;10.176;2023-05-07T04:09:45;12.00;;;10.80;;
7029;SDS011;3556;53.500;10.176;2023-05-07T04:12:11;12.63;;;11.10;;
7029;SDS011;3556;53.500;10.176;2023-05-07T04:14:36;12.70;;;11.30;;
7029;SDS011;3556;53.500;10.176;2023-05-07T04:17:02;13.40;;;11.17;;
7029;SDS011;3556;53.500;10.176;2023-05-07T04:19:27;12.20;;;10.23;;
7029;SDS011;3556;53.500;10.176;2023-05-07T04:21:53;12.30;;;10.97;;
7029;SDS011;3556;53.500;10.176;2023-05-07T04:24:19;14.40;;;10.50;;
7029;SDS011;3556;53.500;10.176;2023-05-07T04:26:45;11.27;;;10.23;;
7029;SDS011;3556;53.500;10.176;2023-05-07T04:29:10;12.10;;;10.67;;
7029;SDS011;3556;53.500;10.176;2023-05-07T04:31:36;11.83;;;10.53;;
7029;SDS011;3556;53.500;10.176;2023-05-07T04:34:02;11.53;;;10.43;;
7029;SDS011;3556;53.500;10.176;2023-05-07T04:36:27;10.83;;;9.77;;
7029;SDS011;3556;53.500;10.176;2023-05-07T04:38:54;11.40;;;10.30;;
7029;SDS011;3556;53.500;10.176;2023-05-07T04:41:19;11.20;;;10.10;;
7029;SDS011;3556;53.500;10.176;2023-05-07T04:43:45;10.00;;;8.83;;
7029;SDS011;3556;53.500;10.176;2023-05-07T04:46:11;10.83;;;9.83;;
7029;SDS011;3556;53.500;10.176;2023-05-07T04:48:36;9.87;;;9.07;;
7029;SDS011;3556;53.500;10.176;2023-05-07T04:51:02;12.10;;;10.83;;
7029;SDS011;3556;53.500;10.176;2023-05-07T04:53:28;10.67;;;9.73;;
7029;SDS011;3556;53.500;10.176;2023-05-07T04:55:56;10.57;;;9.57;;
7029;SDS011;3556;53.500;10.176;2023-05-07T04:58:23;11.70;;;10.57;;
7029;SDS011;3556;53.500;10.176;2023-05-07T05:00:49;10.03;;;9.10;;
7029;SDS011;3556;53.500;10.176;2023-05-07T05:03:14;11.23;;;10.07;;
7029;SDS011;3556;53.500;10.176;2023-05-07T05:05:40;11.23;;;10.13;;
7029;SDS011;3556;53.500;10.176;2023-05-07T05:08:06;12.20;;;10.20;;
7029;SDS011;3556;53.500;10.176;2023-05-07T05:10:32;11.30;;;10.23;;
7029;SDS011;3556;53.500;10.176;2023-05-07T05:12:57;11.67;;;10.23;;
7029;SDS011;3556;53.500;10.176;2023-05-07T05:15:23;11.70;;;10.50;;
7029;SDS011;3556;53.500;10.176;2023-05-07T05:17:48;14.70;;;10.43;;
7029;SDS011;3556;53.500;10.176;2023-05-07T05:20:14;13.50;;;11.27;;
7029;SDS011;3556;53.500;10.176;2023-05-07T05:22:41;10.57;;;9.63;;
7029;SDS011;3556;53.500;10.176;2023-05-07T05:25:07;11.03;;;10.03;;
7029;SDS011;3556;53.500;10.176;2023-05-07T05:27:33;11.03;;;10.03;;
7029;SDS011;3556;53.500;10.176;2023-05-07T05:29:59;11.60;;;9.80;;
7029;SDS011;3556;53.500;10.176;2023-05-07T05:32:25;11.63;;;10.43;;
7029;SDS011;3556;53.500;10.176;2023-05-07T05:34:51;12.20;;;10.60;;
7029;SDS011;3556;53.500;10.176;2023-05-07T05:37:16;13.57;;;10.23;;
7029;SDS011;3556;53.500;10.176;2023-05-07T05:39:42;12.40;;;11.10;;
7029;SDS011;3556;53.500;10.176;2023-05-07T05:42:07;11.43;;;10.23;;
7029;SDS011;3556;53.500;10.176;2023-05-07T05:44:33;13.43;;;11.00;;
7029;SDS011;3556;53.500;10.176;2023-05-07T05:46:59;14.47;;;11.10;;
7029;SDS011;3556;53.500;10.176;2023-05-07T05:49:24;11.97;;;10.80;;
7029;SDS011;3556;53.500;10.176;2023-05-07T05:51:50;13.70;;;11.03;;
7029;SDS011;3556;53.500;10.176;2023-05-07T05:54:16;14.77;;;10.60;;
7029;SDS011;3556;53.500;10.176;2023-05-07T05:56:41;12.13;;;10.73;;
7029;SDS011;3556;53.500;10.176;2023-05-07T05:59:07;10.70;;;9.70;;
7029;SDS011;3556;53.500;10.176;2023-05-07T06:01:33;12.00;;;10.30;;
7029;SDS011;3556;53.500;10.176;2023-05-07T06:03:58;10.43;;;9.37;;
7029;SDS011;3556;53.500;10.176;2023-05-07T06:06:24;12.87;;;10.87;;
7029;SDS011;3556;53.500;10.176;2023-05-07T06:08:50;10.00;;;9.20;;
7029;SDS011;3556;53.500;10.176;2023-05-07T06:11:16;11.27;;;10.23;;
7029;SDS011;3556;53.500;10.176;2023-05-07T06:13:41;11.17;;;9.90;;
7029;SDS011;3556;53.500;10.176;2023-05-07T06:16:07;11.03;;;10.13;;
7029;SDS011;3556;53.500;10.176;2023-05-07T06:18:32;11.43;;;10.17;;
7029;SDS011;3556;53.500;10.176;2023-05-07T06:21:00;11.40;;;10.30;;
7029;SDS011;3556;53.500;10.176;2023-05-07T06:23:26;10.37;;;9.57;;
7029;SDS011;3556;53.500;10.176;2023-05-07T06:25:52;10.70;;;9.70;;
7029;SDS011;3556;53.500;10.176;2023-05-07T06:28:18;11.03;;;10.03;;
7029;SDS011;3556;53.500;10.176;2023-05-07T06:30:43;13.23;;;9.90;;
7029;SDS011;3556;53.500;10.176;2023-05-07T06:33:10;10.23;;;9.43;;
7029;SDS011;3556;53.500;10.176;2023-05-07T06:35:35;10.40;;;9.47;;
7029;SDS011;3556;53.500;10.176;2023-05-07T06:38:01;10.83;;;9.47;;
7029;SDS011;3556;53.500;10.176;2023-05-07T06:40:27;9.30;;;8.30;;
7029;SDS011;3556;53.500;10.176;2023-05-07T06:42:52;8.97;;;8.27;;
7029;SDS011;3556;53.500;10.176;2023-05-07T06:45:19;10.00;;;9.10;;
7029;SDS011;3556;53.500;10.176;2023-05-07T06:47:44;10.63;;;9.63;;
7029;SDS011;3556;53.500;10.176;2023-05-07T06:50:10;8.63;;;7.90;;
7029;SDS011;3556;53.500;10.176;2023-05-07T06:52:36;10.50;;;9.50;;
7029;SDS011;3556;53.500;10.176;2023-05-07T06:55:02;9.50;;;8.70;;
7029;SDS011;3556;53.500;10.176;2023-05-07T06:57:28;9.83;;;8.70;;
7029;SDS011;3556;53.500;10.176;2023-05-07T06:59:53;10.47;;;9.20;;
7029;SDS011;3556;53.500;10.176;2023-05-07T07:02:19;10.43;;;9.27;;
7029;SDS011;3556;53.500;10.176;2023-05-07T07:04:44;9.57;;;8.77;;
7029;SDS011;3556;53.500;10.176;2023-05-07T07:07:10;9.60;;;8.70;;
7029;SDS011;3556;53.500;10.176;2023-05-07T07:09:36;10.07;;;9.17;;
7029;SDS011;3556;53.500;10.176;2023-05-07T07:12:02;8.90;;;8.17;;
7029;SDS011;3556;53.500;10.176;2023-05-07T07:14:27;10.13;;;8.47;;
7029;SDS011;3556;53.500;10.176;2023-05-07T07:16:53;8.60;;;7.93;;
7029;SDS011;3556;53.500;10.176;2023-05-07T07:19:19;9.60;;;8.60;;
7029;SDS011;3556;53.500;10.176;2023-05-07T07:21:45;9.07;;;8.40;;
7029;SDS011;3556;53.500;10.176;2023-05-07T07:24:11;8.33;;;7.70;;
7029;SDS011;3556;53.500;10.176;2023-05-07T07:26:37;9.00;;;8.20;;
7029;SDS011;3556;53.500;10.176;2023-05-07T07:29:02;8.53;;;7.80;;
7029;SDS011;3556;53.500;10.176;2023-05-07T07:31:28;9.23;;;8.33;;
7029;SDS011;3556;53.500;10.176;2023-05-07T07:33:54;8.70;;;8.00;;
7029;SDS011;3556;53.500;10.176;2023-05-07T07:36:19;10.20;;;7.97;;
7029;SDS011;3556;53.500;10.176;2023-05-07T07:38:45;9.73;;;8.10;;
7029;SDS011;3556;53.500;10.176;2023-05-07T07:41:10;8.83;;;8.07;;
7029;SDS011;3556;53.500;10.176;2023-05-07T07:43:36;9.37;;;8.30;;
7029;SDS011;3556;53.500;10.176;2023-05-07T07:46:02;8.87;;;8.07;;
7029;SDS011;3556;53.500;10.176;2023-05-07T07:48:27;8.90;;;7.43;;
7029;SDS011;3556;53.500;10.176;2023-05-07T07:50:53;8.03;;;7.50;;
7029;SDS011;3556;53.500;10.176;2023-05-07T07:53:19;8.90;;;8.20;;
7029;SDS011;3556;53.500;10.176;2023-05-07T07:55:44;8.43;;;7.83;;
7029;SDS011;3556;53.500;10.176;2023-05-07T07:58:10;8.57;;;8.07;;
7029;SDS011;3556;53.500;10.176;2023-05-07T08:00:36;8.83;;;8.13;;
7029;SDS011;3556;53.500;10.176;2023-05-07T08:03:01;8.10;;;7.50;;
7029;SDS011;3556;53.500;10.176;2023-05-07T08:05:28;8.40;;;7.80;;
7029;SDS011;3556;53.500;10.176;2023-05-07T08:07:54;8.50;;;7.80;;
7029;SDS011;3556;53.500;10.176;2023-05-07T08:10:20;8.57;;;7.80;;
7029;SDS011;3556;53.500;10.176;2023-05-07T08:12:47;8.67;;;8.07;;
7029;SDS011;3556;53.500;10.176;2023-05-07T08:15:13;9.00;;;8.20;;
7029;SDS011;3556;53.500;10.176;2023-05-07T08:17:39;8.93;;;8.10;;
7029;SDS011;3556;53.500;10.176;2023-05-07T08:20:05;8.33;;;7.73;;
7029;SDS011;3556;53.500;10.176;2023-05-07T08:22:32;10.37;;;9.47;;
7029;SDS011;3556;53.500;10.176;2023-05-07T08:24:59;8.97;;;8.37;;
7029;SDS011;3556;53.500;10.176;2023-05-07T08:27:25;10.20;;;9.20;;
7029;SDS011;3556;53.500;10.176;2023-05-07T08:29:51;9.97;;;9.07;;
7029;SDS011;3556;53.500;10.176;2023-05-07T08:32:16;22.03;;;9.03;;
7029;SDS011;3556;53.500;10.176;2023-05-07T08:34:42;9.40;;;8.60;;
7029;SDS011;3556;53.500;10.176;2023-05-07T08:37:07;10.13;;;9.33;;
7029;SDS011;3556;53.500;10.176;2023-05-07T08:39:33;9.30;;;8.60;;
7029;SDS011;3556;53.500;10.176;2023-05-07T08:42:00;9.23;;;8.50;;
7029;SDS011;3556;53.500;10.176;2023-05-07T08:44:29;9.60;;;8.60;;
7029;SDS011;3556;53.500;10.176;2023-05-07T08:46:59;8.13;;;7.40;;
7029;SDS011;3556;53.500;10.176;2023-05-07T08:49:27;19.50;;;9.43;;
7029;SDS011;3556;53.500;10.176;2023-05-07T08:51:53;8.30;;;7.70;;
7029;SDS011;3556;53.500;10.176;2023-05-07T08:54:19;8.03;;;7.43;;
7029;SDS011;3556;53.500;10.176;2023-05-07T08:56:45;8.53;;;7.90;;
7029;SDS011;3556;53.500;10.176;2023-05-07T08:59:11;10.13;;;8.23;;
7029;SDS011;3556;53.500;10.176;2023-05-07T09:01:37;7.60;;;6.83;;
7029;SDS011;3556;53.500;10.176;2023-05-07T09:04:03;8.63;;;7.93;;
7029;SDS011;3556;53.500;10.176;2023-05-07T09:06:30;8.50;;;7.80;;
7029;SDS011;3556;53.500;10.176;2023-05-07T09:08:56;8.23;;;7.63;;
7029;SDS011;3556;53.500;10.176;2023-05-07T09:11:23;8.73;;;8.03;;
7029;SDS011;3556;53.500;10.176;2023-05-07T09:13:56;9.07;;;8.37;;
7029;SDS011;3556;53.500;10.176;2023-05-07T09:16:23;7.60;;;7.00;;
7029;SDS011;3556;53.500;10.176;2023-05-07T09:18:53;9.47;;;7.87;;
7029;SDS011;3556;53.500;10.176;2023-05-07T09:21:20;8.20;;;7.70;;
7029;SDS011;3556;53.500;10.176;2023-05-07T09:23:47;7.70;;;7.30;;
7029;SDS011;3556;53.500;10.176;2023-05-07T09:26:17;8.80;;;7.87;;
7029;SDS011;3556;53.500;10.176;2023-05-07T09:28:43;8.27;;;7.60;;
7029;SDS011;3556;53.500;10.176;2023-05-07T09:31:09;9.37;;;7.70;;
7029;SDS011;3556;53.500;10.176;2023-05-07T09:33:36;8.43;;;7.67;;
7029;SDS011;3556;53.500;10.176;2023-05-07T09:36:03;8.60;;;7.90;;
7029;SDS011;3556;53.500;10.176;2023-05-07T09:38:30;7.03;;;6.63;;
7029;SDS011;3556;53.500;10.176;2023-05-07T09:41:07;8.83;;;8.10;;
7029;SDS011;3556;53.500;10.176;2023-05-07T09:43:34;7.90;;;7.30;;
7029;SDS011;3556;53.500;10.176;2023-05-07T09:46:03;14.40;;;9.50;;
7029;SDS011;3556;53.500;10.176;2023-05-07T09:48:31;8.33;;;7.63;;
7029;SDS011;3556;53.500;10.176;2023-05-07T09:51:02;7.70;;;7.30;;
7029;SDS011;3556;53.500;10.176;2023-05-07T09:53:29;9.30;;;8.60;;
7029;SDS011;3556;53.500;10.176;2023-05-07T09:55:56;8.63;;;7.93;;
7029;SDS011;3556;53.500;10.176;2023-05-07T09:58:23;8.00;;;7.40;;
7029;SDS011;3556;53.500;10.176;2023-05-07T10:00:50;9.67;;;7.10;;
7029;SDS011;3556;53.500;10.176;2023-05-07T10:03:17;8.37;;;7.77;;
7029;SDS011;3556;53.500;10.176;2023-05-07T10:05:44;7.53;;;6.93;;
7029;SDS011;3556;53.500;10.176;2023-05-07T10:08:12;8.90;;;8.03;;
7029;SDS011;3556;53.500;10.176;2023-05-07T10:10:38;8.03;;;7.20;;
7029;SDS011;3556;53.500;10.176;2023-05-07T10:13:05;7.73;;;7.23;;
7029;SDS011;3556;53.500;10.176;2023-05-07T10:15:35;7.70;;;7.17;;
7029;SDS011;3556;53.500;10.176;2023-05-07T10:18:02;8.40;;;7.60;;
7029;SDS011;3556;53.500;10.176;2023-05-07T10:20:28;17.33;;;6.50;;
7029;SDS011;3556;53.500;10.176;2023-05-07T10:22:54;8.00;;;7.30;;
7029;SDS011;3556;53.500;10.176;2023-05-07T10:25:25;7.43;;;6.97;;
7029;SDS011;3556;53.500;10.176;2023-05-07T10:27:55;7.60;;;7.20;;
7029;SDS011;3556;53.500;10.176;2023-05-07T10:33:26;7.27;;;6.80;;
7029;SDS011;3556;53.500;10.176;2023-05-07T10:35:55;6.83;;;6.53;;
7029;SDS011;3556;53.500;10.176;2023-05-07T10:38:23;6.37;;;5.97;;
7029;SDS011;3556;53.500;10.176;2023-05-07T10:40:50;7.20;;;6.40;;
7029;SDS011;3556;53.500;10.176;2023-05-07T10:43:16;6.30;;;5.80;;
7029;SDS011;3556;53.500;10.176;2023-05-07T10:45:42;6.27;;;6.07;;
7029;SDS011;3556;53.500;10.176;2023-05-07T10:48:08;7.10;;;6.73;;
7029;SDS011;3556;53.500;10.176;2023-05-07T10:50:35;7.70;;;7.13;;
7029;SDS011;3556;53.500;10.176;2023-05-07T10:53:20;6.37;;;6.17;;
7029;SDS011;3556;53.500;10.176;2023-05-07T10:55:52;6.93;;;6.63;;
7029;SDS011;3556;53.500;10.176;2023-05-07T10:58:43;28.27;;;6.40;;
7029;SDS011;3556;53.500;10.176;2023-05-07T11:01:09;6.37;;;5.97;;
7029;SDS011;3556;53.500;10.176;2023-05-07T11:03:37;6.97;;;6.57;;
7029;SDS011;3556;53.500;10.176;2023-05-07T11:06:39;5.93;;;5.77;;
7029;SDS011;3556;53.500;10.176;2023-05-07T11:09:05;6.27;;;5.70;;
7029;SDS011;3556;53.500;10.176;2023-05-07T11:14:46;6.27;;;5.97;;
7029;SDS011;3556;53.500;10.176;2023-05-07T11:17:11;6.20;;;5.63;;
7029;SDS011;3556;53.500;10.176;2023-05-07T11:19:50;5.80;;;5.60;;
7029;SDS011;3556;53.500;10.176;2023-05-07T11:25:04;6.53;;;5.70;;
7029;SDS011;3556;53.500;10.176;2023-05-07T11:27:31;5.30;;;5.13;;
7029;SDS011;3556;53.500;10.176;2023-05-07T11:29:57;5.50;;;5.27;;
7029;SDS011;3556;53.500;10.176;2023-05-07T11:32:23;5.57;;;5.37;;
7029;SDS011;3556;53.500;10.176;2023-05-07T11:34:56;5.20;;;4.70;;
7029;SDS011;3556;53.500;10.176;2023-05-07T11:37:22;5.20;;;4.90;;
7029;SDS011;3556;53.500;10.176;2023-05-07T11:39:49;5.13;;;4.83;;
7029;SDS011;3556;53.500;10.176;2023-05-07T11:42:31;6.40;;;4.77;;
7029;SDS011;3556;53.500;10.176;2023-05-07T11:45:01;4.93;;;4.83;;
7029;SDS011;3556;53.500;10.176;2023-05-07T11:47:29;5.30;;;4.90;;
7029;SDS011;3556;53.500;10.176;2023-05-07T11:49:55;5.10;;;4.90;;
7029;SDS011;3556;53.500;10.176;2023-05-07T11:52:22;5.90;;;5.57;;
7029;SDS011;3556;53.500;10.176;2023-05-07T11:54:56;4.67;;;4.37;;
7029;SDS011;3556;53.500;10.176;2023-05-07T11:57:23;4.90;;;4.70;;
7029;SDS011;3556;53.500;10.176;2023-05-07T11:59:53;5.47;;;4.10;;
7029;SDS011;3556;53.500;10.176;2023-05-07T12:02:19;4.30;;;4.00;;
7029;SDS011;3556;53.500;10.176;2023-05-07T12:04:45;4.33;;;4.03;;
7029;SDS011;3556;53.500;10.176;2023-05-07T12:07:11;4.33;;;4.20;;
7029;SDS011;3556;53.500;10.176;2023-05-07T12:09:43;4.00;;;3.90;;
7029;SDS011;3556;53.500;10.176;2023-05-07T12:12:11;3.87;;;3.57;;
7029;SDS011;3556;53.500;10.176;2023-05-07T12:14:38;4.20;;;4.10;;
7029;SDS011;3556;53.500;10.176;2023-05-07T12:17:05;3.93;;;3.63;;
7029;SDS011;3556;53.500;10.176;2023-05-07T12:19:32;3.60;;;3.20;;
7029;SDS011;3556;53.500;10.176;2023-05-07T12:21:59;3.63;;;3.53;;
7029;SDS011;3556;53.500;10.176;2023-05-07T12:24:26;3.47;;;3.37;;
7029;SDS011;3556;53.500;10.176;2023-05-07T12:26:51;3.63;;;3.53;;
7029;SDS011;3556;53.500;10.176;2023-05-07T12:29:21;3.87;;;3.77;;
7029;SDS011;3556;53.500;10.176;2023-05-07T12:31:47;3.60;;;3.50;;
7029;SDS011;3556;53.500;10.176;2023-05-07T12:34:14;3.93;;;3.73;;
7029;SDS011;3556;53.500;10.176;2023-05-07T12:36:40;3.60;;;3.50;;
7029;SDS011;3556;53.500;10.176;2023-05-07T12:39:06;3.77;;;3.67;;
7029;SDS011;3556;53.500;10.176;2023-05-07T12:41:51;3.60;;;3.40;;
7029;SDS011;3556;53.500;10.176;2023-05-07T12:44:25;3.43;;;3.27;;
7029;SDS011;3556;53.500;10.176;2023-05-07T12:46:54;3.73;;;3.50;;
7029;SDS011;3556;53.500;10.176;2023-05-07T12:49:19;3.70;;;3.33;;
7029;SDS011;3556;53.500;10.176;2023-05-07T12:51:48;3.43;;;3.33;;
7029;SDS011;3556;53.500;10.176;2023-05-07T12:54:27;3.93;;;3.73;;
7029;SDS011;3556;53.500;10.176;2023-05-07T12:57:01;3.50;;;3.40;;
7029;SDS011;3556;53.500;10.176;2023-05-07T12:59:31;3.70;;;3.60;;
7029;SDS011;3556;53.500;10.176;2023-05-07T13:02:05;3.73;;;3.40;;
7029;SDS011;3556;53.500;10.176;2023-05-07T13:04:31;3.37;;;3.27;;
7029;SDS011;3556;53.500;10.176;2023-05-07T13:06:57;3.27;;;3.17;;
7029;SDS011;3556;53.500;10.176;2023-05-07T13:09:24;3.43;;;3.13;;
7029;SDS011;3556;53.500;10.176;2023-05-07T13:11:49;3.10;;;3.00;;
7029;SDS011;3556;53.500;10.176;2023-05-07T13:14:15;3.93;;;3.83;;
7029;SDS011;3556;53.500;10.176;2023-05-07T13:16:41;6.03;;;3.60;;
7029;SDS011;3556;53.500;10.176;2023-05-07T13:19:06;3.33;;;3.23;;
7029;SDS011;3556;53.500;10.176;2023-05-07T13:21:32;3.23;;;3.00;;
7029;SDS011;3556;53.500;10.176;2023-05-07T13:23:58;3.20;;;3.10;;
7029;SDS011;3556;53.500;10.176;2023-05-07T13:26:24;3.23;;;3.13;;
7029;SDS011;3556;53.500;10.176;2023-05-07T13:28:50;2.80;;;2.70;;
7029;SDS011;3556;53.500;10.176;2023-05-07T13:31:19;2.87;;;2.77;;
7029;SDS011;3556;53.500;10.176;2023-05-07T13:33:45;3.43;;;3.20;;
7029;SDS011;3556;53.500;10.176;2023-05-07T13:36:11;3.33;;;3.13;;
7029;SDS011;3556;53.500;10.176;2023-05-07T13:38:37;2.80;;;2.60;;
7029;SDS011;3556;53.500;10.176;2023-05-07T13:41:02;2.50;;;2.40;;
7029;SDS011;3556;53.500;10.176;2023-05-07T13:43:28;5.13;;;2.70;;
7029;SDS011;3556;53.500;10.176;2023-05-07T13:45:54;2.90;;;2.80;;
7029;SDS011;3556;53.500;10.176;2023-05-07T13:48:19;3.30;;;3.10;;
7029;SDS011;3556;53.500;10.176;2023-05-07T13:50:45;2.80;;;2.60;;
7029;SDS011;3556;53.500;10.176;2023-05-07T13:53:10;2.87;;;2.77;;
7029;SDS011;3556;53.500;10.176;2023-05-07T13:55:36;3.17;;;2.43;;
7029;SDS011;3556;53.500;10.176;2023-05-07T13:58:02;9.13;;;3.07;;
7029;SDS011;3556;53.500;10.176;2023-05-07T14:00:28;2.40;;;2.30;;
7029;SDS011;3556;53.500;10.176;2023-05-07T14:02:54;3.27;;;2.97;;
7029;SDS011;3556;53.500;10.176;2023-05-07T14:05:20;2.73;;;2.53;;
7029;SDS011;3556;53.500;10.176;2023-05-07T14:07:48;2.50;;;2.40;;
7029;SDS011;3556;53.500;10.176;2023-05-07T14:10:16;3.37;;;2.80;;
7029;SDS011;3556;53.500;10.176;2023-05-07T14:12:43;2.57;;;2.47;;
7029;SDS011;3556;53.500;10.176;2023-05-07T14:15:09;2.60;;;2.50;;
7029;SDS011;3556;53.500;10.176;2023-05-07T14:17:35;2.60;;;2.50;;
7029;SDS011;3556;53.500;10.176;2023-05-07T14:20:01;2.70;;;2.60;;
7029;SDS011;3556;53.500;10.176;2023-05-07T14:22:26;4.30;;;2.70;;
7029;SDS011;3556;53.500;10.176;2023-05-07T14:24:52;2.60;;;2.50;;
7029;SDS011;3556;53.500;10.176;2023-05-07T14:27:18;3.10;;;2.70;;
7029;SDS011;3556;53.500;10.176;2023-05-07T14:29:43;2.57;;;2.47;;
7029;SDS011;3556;53.500;10.176;2023-05-07T14:32:10;2.53;;;2.43;;
7029;SDS011;3556;53.500;10.176;2023-05-07T14:34:36;2.57;;;2.47;;
7029;SDS011;3556;53.500;10.176;2023-05-07T14:37:01;3.43;;;2.47;;
7029;SDS011;3556;53.500;10.176;2023-05-07T14:39:28;2.33;;;2.13;;
7029;SDS011;3556;53.500;10.176;2023-05-07T14:41:54;2.40;;;2.20;;
7029;SDS011;3556;53.500;10.176;2023-05-07T14:44:21;2.37;;;2.27;;
7029;SDS011;3556;53.500;10.176;2023-05-07T14:46:46;2.20;;;2.10;;
7029;SDS011;3556;53.500;10.176;2023-05-07T14:49:13;2.47;;;2.37;;
7029;SDS011;3556;53.500;10.176;2023-05-07T14:51:42;2.87;;;2.77;;
7029;SDS011;3556;53.500;10.176;2023-05-07T14:54:09;2.53;;;2.43;;
7029;SDS011;3556;53.500;10.176;2023-05-07T14:56:35;2.80;;;2.60;;